Big Piney River (Missouri), Fort Leonard Wood (06930060)

StateMissouriLatestGood (785 cfs)
RiverBig Piney RiverRatingObservedEstimated
Updated2026-05-04 3:00 (32 minutes ago)Flood - The river is flooding. Obstacles can be treacherous or deadly. The river should be avoided at this stage for casual trips and definitely for the inexperienced. Trips should be attempted only with protective gear and equipment.Flood(none)3182
Discharge785 cfs (median: 992 cfs)High - The river is high and potentially dangerous, especially for the young and / or inexperienced. Normal stream obstacles are sometimes difficult to navigate. Extended distances can be attempted, but canoe travel may not be advisable.High(none)1610
Height3.27 feetGood - Conditions are ideal for a canoe or kayak. Boats typically will drag on fewer than one-quarter of riffles, if at all, and portages are unnecessary or rare. Normal float lengths can be attempted without a problem.Good(none)767
TrendFalling (falling over 24 hours)Low - River is low but can still be floated. Some riffles are okay but most come with significant dragging and might need a portage. Float lengths should be reduced to accommodate low flow, dragging, and portages.Low(none)448
USGSExternal icon USGS Site (External icon Duck Duck Go Maps)Poor - River is too low to float comfortably. Most or all riffles will drag or must be portaged and some obstacles (such as slick shelf rock) cause undue problems. Avoid the river at this stage for casual paddling trips.Poor(none)225

Trending Data

Plot Image

Trips for Big Piney River (Missouri), Fort Leonard Wood (06930060)

DateStartEndDistanceConditionDischargeHeightFishingDetails

A total of 0 rows are displayed.

Condition Descriptions

Fishing Conditions

Fish Species

Notes

Classic Trip List

The classic River Trips application is still available for use. It is updated with the new system using a data retrofit. It is no longer maintained. The original River Trips application is no longer updated (as of 1 Dec 2016) but can be checked for errors or for the condition of the data before it was converted to the new system.

Gauge Data Table

ObservationHeightDischargeMaximum
Discharge
Minimum
Discharge
Mean
Discharge
P05P10P20P25P50
(Median)
P75P80P90P95
2026-05-04 03:00 3.27 785 10300 (2017) 167 (2000) 1600 172 258 384 524 992 1960 2170 3640 8020
2026-05-04 02:00 3.28 791 10300 (2017) 167 (2000) 1600 172 258 384 524 992 1960 2170 3640 8020
2026-05-04 01:00 3.28 791 10300 (2017) 167 (2000) 1600 172 258 384 524 992 1960 2170 3640 8020
2026-05-04 00:00 3.29 797 10300 (2017) 167 (2000) 1600 172 258 384 524 992 1960 2170 3640 8020
2026-05-03 23:00 3.30 804 10300 (2017) 167 (2000) 1600 172 258 384 524 992 1960 2170 3640 8020
2026-05-03 22:00 3.30 804 5380 (2011) 168 (2000) 1460 174 264 392 509 799 1850 2680 4150 5010
2026-05-03 21:00 3.30 804 5380 (2011) 168 (2000) 1460 174 264 392 509 799 1850 2680 4150 5010
2026-05-03 20:00 3.31 810 5380 (2011) 168 (2000) 1460 174 264 392 509 799 1850 2680 4150 5010
2026-05-03 19:00 3.33 822 5380 (2011) 168 (2000) 1460 174 264 392 509 799 1850 2680 4150 5010
2026-05-03 18:00 3.33 822 5380 (2011) 168 (2000) 1460 174 264 392 509 799 1850 2680 4150 5010
2026-05-03 17:00 3.34 828 5380 (2011) 168 (2000) 1460 174 264 392 509 799 1850 2680 4150 5010
2026-05-03 16:00 3.36 841 5380 (2011) 168 (2000) 1460 174 264 392 509 799 1850 2680 4150 5010
2026-05-03 15:00 3.36 841 5380 (2011) 168 (2000) 1460 174 264 392 509 799 1850 2680 4150 5010
2026-05-03 14:00 3.37 847 5380 (2011) 168 (2000) 1460 174 264 392 509 799 1850 2680 4150 5010
2026-05-03 13:00 3.37 847 5380 (2011) 168 (2000) 1460 174 264 392 509 799 1850 2680 4150 5010
2026-05-03 12:00 3.40 866 5380 (2011) 168 (2000) 1460 174 264 392 509 799 1850 2680 4150 5010
2026-05-03 11:00 3.39 860 5380 (2011) 168 (2000) 1460 174 264 392 509 799 1850 2680 4150 5010
2026-05-03 10:00 3.40 866 5380 (2011) 168 (2000) 1460 174 264 392 509 799 1850 2680 4150 5010
2026-05-03 09:00 3.40 866 5380 (2011) 168 (2000) 1460 174 264 392 509 799 1850 2680 4150 5010
2026-05-03 08:00 3.42 879 5380 (2011) 168 (2000) 1460 174 264 392 509 799 1850 2680 4150 5010
2026-05-03 07:00 3.43 886 5380 (2011) 168 (2000) 1460 174 264 392 509 799 1850 2680 4150 5010
2026-05-03 06:00 3.45 899 5380 (2011) 168 (2000) 1460 174 264 392 509 799 1850 2680 4150 5010
2026-05-03 05:00 3.45 899 5380 (2011) 168 (2000) 1460 174 264 392 509 799 1850 2680 4150 5010
2026-05-03 04:00 3.46 906 5380 (2011) 168 (2000) 1460 174 264 392 509 799 1850 2680 4150 5010
2026-05-03 03:00 3.47 913 5380 (2011) 168 (2000) 1460 174 264 392 509 799 1850 2680 4150 5010
2026-05-03 02:00 3.48 919 5380 (2011) 168 (2000) 1460 174 264 392 509 799 1850 2680 4150 5010
2026-05-03 01:00 3.49 926 5380 (2011) 168 (2000) 1460 174 264 392 509 799 1850 2680 4150 5010
2026-05-03 00:00 3.49 926 5380 (2011) 168 (2000) 1460 174 264 392 509 799 1850 2680 4150 5010
2026-05-02 23:00 3.51 940 5380 (2011) 168 (2000) 1460 174 264 392 509 799 1850 2680 4150 5010
2026-05-02 22:00 3.51 940 11900 (2019) 169 (2000) 1930 176 272 403 523 962 2370 3630 4810 9820
2026-05-02 21:00 3.53 953 11900 (2019) 169 (2000) 1930 176 272 403 523 962 2370 3630 4810 9820
2026-05-02 20:00 3.54 960 11900 (2019) 169 (2000) 1930 176 272 403 523 962 2370 3630 4810 9820
2026-05-02 19:00 3.55 967 11900 (2019) 169 (2000) 1930 176 272 403 523 962 2370 3630 4810 9820
2026-05-02 18:00 3.56 974 11900 (2019) 169 (2000) 1930 176 272 403 523 962 2370 3630 4810 9820
2026-05-02 17:00 3.58 989 11900 (2019) 169 (2000) 1930 176 272 403 523 962 2370 3630 4810 9820
2026-05-02 16:00 3.59 996 11900 (2019) 169 (2000) 1930 176 272 403 523 962 2370 3630 4810 9820
2026-05-02 15:00 3.60 1000 11900 (2019) 169 (2000) 1930 176 272 403 523 962 2370 3630 4810 9820
2026-05-02 14:00 3.61 1010 11900 (2019) 169 (2000) 1930 176 272 403 523 962 2370 3630 4810 9820
2026-05-02 13:00 3.63 1020 11900 (2019) 169 (2000) 1930 176 272 403 523 962 2370 3630 4810 9820
2026-05-02 12:00 3.64 1030 11900 (2019) 169 (2000) 1930 176 272 403 523 962 2370 3630 4810 9820
2026-05-02 11:00 3.64 1030 11900 (2019) 169 (2000) 1930 176 272 403 523 962 2370 3630 4810 9820
2026-05-02 10:00 3.66 1050 11900 (2019) 169 (2000) 1930 176 272 403 523 962 2370 3630 4810 9820
2026-05-02 09:00 3.67 1050 11900 (2019) 169 (2000) 1930 176 272 403 523 962 2370 3630 4810 9820
2026-05-02 08:00 3.70 1080 11900 (2019) 169 (2000) 1930 176 272 403 523 962 2370 3630 4810 9820
2026-05-02 07:00 3.68 1060 11900 (2019) 169 (2000) 1930 176 272 403 523 962 2370 3630 4810 9820
2026-05-02 06:00 3.72 1090 11900 (2019) 169 (2000) 1930 176 272 403 523 962 2370 3630 4810 9820
2026-05-02 05:00 3.74 1110 11900 (2019) 169 (2000) 1930 176 272 403 523 962 2370 3630 4810 9820
2026-05-02 04:00 3.74 1110 11900 (2019) 169 (2000) 1930 176 272 403 523 962 2370 3630 4810 9820
2026-05-02 03:00 3.76 1120 11900 (2019) 169 (2000) 1930 176 272 403 523 962 2370 3630 4810 9820
2026-05-02 02:00 3.77 1130 11900 (2019) 169 (2000) 1930 176 272 403 523 962 2370 3630 4810 9820
2026-05-02 01:00 3.79 1150 11900 (2019) 169 (2000) 1930 176 272 403 523 962 2370 3630 4810 9820
2026-05-02 00:00 3.80 1150 11900 (2019) 169 (2000) 1930 176 272 403 523 962 2370 3630 4810 9820
2026-05-01 23:00 3.81 1160 11900 (2019) 169 (2000) 1930 176 272 403 523 962 2370 3630 4810 9820
2026-05-01 22:00 3.83 1180 23800 (2017) 168 (2000) 2290 177 282 392 520 867 2100 2730 5060 17700
2026-05-01 21:00 3.83 1180 23800 (2017) 168 (2000) 2290 177 282 392 520 867 2100 2730 5060 17700
2026-05-01 20:00 3.85 1190 23800 (2017) 168 (2000) 2290 177 282 392 520 867 2100 2730 5060 17700
2026-05-01 19:00 3.88 1220 23800 (2017) 168 (2000) 2290 177 282 392 520 867 2100 2730 5060 17700
2026-05-01 18:00 3.90 1240 23800 (2017) 168 (2000) 2290 177 282 392 520 867 2100 2730 5060 17700
2026-05-01 17:00 3.92 1250 23800 (2017) 168 (2000) 2290 177 282 392 520 867 2100 2730 5060 17700
2026-05-01 16:00 3.93 1260 23800 (2017) 168 (2000) 2290 177 282 392 520 867 2100 2730 5060 17700
2026-05-01 15:00 3.95 1280 23800 (2017) 168 (2000) 2290 177 282 392 520 867 2100 2730 5060 17700
2026-05-01 14:00 3.98 1300 23800 (2017) 168 (2000) 2290 177 282 392 520 867 2100 2730 5060 17700
2026-05-01 13:00 4.00 1320 23800 (2017) 168 (2000) 2290 177 282 392 520 867 2100 2730 5060 17700
2026-05-01 12:00 4.02 1340 23800 (2017) 168 (2000) 2290 177 282 392 520 867 2100 2730 5060 17700
2026-05-01 11:00 4.01 1330 23800 (2017) 168 (2000) 2290 177 282 392 520 867 2100 2730 5060 17700
2026-05-01 10:00 4.05 1360 23800 (2017) 168 (2000) 2290 177 282 392 520 867 2100 2730 5060 17700
2026-05-01 09:00 4.06 1370 23800 (2017) 168 (2000) 2290 177 282 392 520 867 2100 2730 5060 17700
2026-05-01 08:00 4.10 1410 23800 (2017) 168 (2000) 2290 177 282 392 520 867 2100 2730 5060 17700
2026-05-01 07:00 4.11 1420 23800 (2017) 168 (2000) 2290 177 282 392 520 867 2100 2730 5060 17700
2026-05-01 06:00 4.14 1440 23800 (2017) 168 (2000) 2290 177 282 392 520 867 2100 2730 5060 17700
2026-05-01 05:00 4.16 1460 23800 (2017) 168 (2000) 2290 177 282 392 520 867 2100 2730 5060 17700
2026-05-01 04:00 4.19 1490 23800 (2017) 168 (2000) 2290 177 282 392 520 867 2100 2730 5060 17700
2026-05-01 03:00 4.20 1500 23800 (2017) 168 (2000) 2290 177 282 392 520 867 2100 2730 5060 17700
2026-05-01 02:00 4.26 1550 23800 (2017) 168 (2000) 2290 177 282 392 520 867 2100 2730 5060 17700
2026-05-01 01:00 4.27 1560 23800 (2017) 168 (2000) 2290 177 282 392 520 867 2100 2730 5060 17700
2026-05-01 00:00 4.28 1570 23800 (2017) 168 (2000) 2290 177 282 392 520 867 2100 2730 5060 17700
2026-04-30 23:00 4.32 1610 23800 (2017) 168 (2000) 2290 177 282 392 520 867 2100 2730 5060 17700

A total of 77 rows are displayed for years 2000 through 2025.